Time;durP1;ratioP1;P1;durP2;ratioP2;P2;SDS_P1;SDS_P2;PMS_P1;PMS_P2;Temp;Humidity;BMP_temperature;BMP_pressure;BME280_temperature;BME280_humidity;BME280_pressure;Samples;Min_cycle;Max_cycle;Signal;HPM_P1;HPM_P2
2020/12/10 00:05:25;;;;;;;78.87;33.63;;;;;;;-2.28;90.37;98598.99;4208458;83;21145;-80
2020/12/10 00:11:27;;;;;;;81.83;34.83;;;;;;;-2.30;90.34;98592.59;4210686;83;21231;-80
2020/12/10 00:17:29;;;;;;;93.13;37.23;;;;;;;-2.27;90.35;98593.33;4209780;83;21195;-80
2020/12/10 00:23:31;;;;;;;84.73;34.23;;;;;;;-2.24;90.33;98590.61;4219090;83;21167;-80
2020/12/10 00:29:32;;;;;;;86.27;34.10;;;;;;;-2.23;90.27;98585.48;4215321;83;21456;-80
2020/12/10 00:35:34;;;;;;;84.47;33.70;;;;;;;-2.24;90.35;98585.25;4206945;83;21167;-80
2020/12/10 00:41:35;;;;;;;87.90;34.90;;;;;;;-2.28;90.44;98581.56;4216085;83;21563;-80
2020/12/10 00:47:37;;;;;;;84.43;34.50;;;;;;;-2.29;90.54;98577.31;4204561;83;21324;-80
2020/12/10 00:53:38;;;;;;;85.63;34.40;;;;;;;-2.34;90.45;98570.70;4220838;82;21476;-80
2020/12/10 00:59:40;;;;;;;94.03;35.17;;;;;;;-2.33;90.44;98577.11;4203612;82;21146;-80
2020/12/10 01:05:42;;;;;;;82.90;34.63;;;;;;;-2.32;90.45;98571.98;4222297;83;21195;-80
2020/12/10 01:11:43;;;;;;;79.13;32.83;;;;;;;-2.33;90.41;98574.97;4227266;83;21724;-80
2020/12/10 01:17:44;;;;;;;76.43;32.87;;;;;;;-2.36;90.48;98570.20;4226554;82;21186;-80
2020/12/10 01:23:46;;;;;;;83.23;33.83;;;;;;;-2.36;90.45;98546.89;4210838;82;21206;-80
2020/12/10 01:29:48;;;;;;;82.93;32.43;;;;;;;-2.38;90.42;98548.30;4223465;82;21301;-80
2020/12/10 01:35:49;;;;;;;75.87;31.97;;;;;;;-2.38;90.55;98534.33;4211754;82;21235;-80
2020/12/10 01:41:51;;;;;;;72.37;30.03;;;;;;;-2.42;90.53;98538.72;4192005;84;21163;-80
2020/12/10 01:47:52;;;;;;;75.83;31.50;;;;;;;-2.44;90.69;98534.19;4186540;83;21195;-80
2020/12/10 01:53:54;;;;;;;68.40;30.40;;;;;;;-2.46;90.64;98536.94;4104046;85;21205;-80
2020/12/10 01:59:56;;;;;;;68.13;29.43;;;;;;;-2.49;90.66;98512.86;4049632;86;21228;-80
2020/12/10 02:05:57;;;;;;;69.17;29.20;;;;;;;-2.48;90.69;98510.98;4102816;86;21201;-80
2020/12/10 02:11:59;;;;;;;69.30;27.20;;;;;;;-2.45;90.83;98503.14;4111263;85;21174;-80
2020/12/10 02:18:05;;;;;;;63.87;27.73;;;;;;;-2.45;90.79;98490.27;4106838;85;21780;-80
2020/12/10 02:24:08;;;;;;;68.83;26.77;;;;;;;-2.50;90.89;98504.58;4107678;85;21201;-80
2020/12/10 02:30:09;;;;;;;67.73;29.07;;;;;;;-2.49;90.82;98502.70;4096225;85;21607;-80
2020/12/10 02:36:11;;;;;;;65.70;27.40;;;;;;;-2.50;90.88;98499.22;4097604;85;21599;-80
2020/12/10 02:42:12;;;;;;;60.00;26.50;;;;;;;-2.48;90.96;98501.59;4114142;86;21190;-80
2020/12/10 02:48:14;;;;;;;60.40;25.33;;;;;;;-2.47;90.98;98489.77;4101248;85;21182;-80
2020/12/10 02:54:15;;;;;;;71.83;28.33;;;;;;;-2.50;90.90;98482.34;4100611;86;21182;-80
2020/12/10 03:00:17;;;;;;;63.60;26.83;;;;;;;-2.48;90.92;98468.09;4105812;85;21606;-80
2020/12/10 03:06:18;;;;;;;66.47;26.20;;;;;;;-2.45;90.96;98461.59;4146562;84;26790;-80
2020/12/10 03:12:20;;;;;;;70.90;28.67;;;;;;;-2.44;91.02;98462.36;4188085;84;21862;-80
2020/12/10 03:18:21;;;;;;;71.13;28.07;;;;;;;-2.41;91.05;98448.38;4185745;84;21552;-80
2020/12/10 03:24:23;;;;;;;80.53;28.10;;;;;;;-2.41;91.00;98439.77;4191132;84;21206;-80
2020/12/10 03:30:25;;;;;;;72.47;25.90;;;;;;;-2.41;90.99;98439.77;4191826;83;21583;-80
2020/12/10 03:36:29;;;;;;;77.73;27.67;;;;;;;-2.41;91.02;98437.09;4206554;84;21629;-80
2020/12/10 03:42:31;;;;;;;70.53;28.13;;;;;;;-2.41;91.15;98433.64;4186869;84;21224;-80
2020/12/10 03:48:32;;;;;;;74.43;28.30;;;;;;;-2.44;91.29;98425.64;4178860;84;21626;-80
2020/12/10 03:54:34;;;;;;;84.47;28.80;;;;;;;-2.43;91.22;98415.72;4188690;84;21697;-80
2020/12/10 04:00:36;;;;;;;74.87;27.73;;;;;;;-2.44;91.21;98405.54;4188685;84;21169;-80
2020/12/10 04:06:42;;;;;;;73.40;25.93;;;;;;;-2.43;91.29;98403.13;4179494;84;21180;-80
2020/12/10 04:12:40;;;;;;;63.30;24.03;;;;;;;-2.41;91.33;98408.17;4186698;84;21196;-80
2020/12/10 04:18:42;;;;;;;69.93;25.00;;;;;;;-2.37;91.29;98405.92;4183323;83;21141;-80
2020/12/10 04:24:44;;;;;;;76.33;26.10;;;;;;;-2.38;91.27;98404.31;4179963;84;21169;-80
2020/12/10 04:30:46;;;;;;;78.77;28.37;;;;;;;-2.39;91.36;98393.36;4178931;84;21157;-80
2020/12/10 04:36:47;;;;;;;87.17;32.17;;;;;;;-2.38;91.35;98388.80;4186150;83;21223;-80
2020/12/10 04:42:50;;;;;;;82.27;29.97;;;;;;;-2.36;91.34;98381.22;4173168;79;21625;-81
2020/12/10 04:48:53;;;;;;;82.30;28.57;;;;;;;-2.39;91.37;98383.17;4187140;84;21215;-80
2020/12/10 04:54:55;;;;;;;87.23;31.17;;;;;;;-2.38;91.51;98380.77;4177260;84;21214;-81
2020/12/10 05:01:01;;;;;;;82.17;29.17;;;;;;;-2.37;91.40;98378.31;4181484;84;21202;-81
2020/12/10 05:07:03;;;;;;;76.70;26.95;;;;;;;-2.37;91.49;98386.35;4174366;84;21194;-81
2020/12/10 05:13:11;;;;;;;80.60;28.30;;;;;;;-2.34;91.65;98380.38;4175823;84;21206;-81
2020/12/10 05:19:22;;;;;;;76.20;27.67;;;;;;;-2.41;91.58;98378.13;4173632;85;21152;-81
2020/12/10 05:25:23;;;;;;;82.83;28.70;;;;;;;-2.41;91.66;98367.40;4174158;84;21136;-81
2020/12/10 05:31:25;;;;;;;74.27;26.53;;;;;;;-2.40;91.71;98355.60;4173650;84;21663;-81
2020/12/10 05:37:32;;;;;;;82.23;28.57;;;;;;;-2.38;91.83;98356.63;4173877;84;21182;-81
2020/12/10 05:43:35;;;;;;;84.37;32.00;;;;;;;-2.39;91.71;98360.39;4181010;84;21213;-82
2020/12/10 05:49:36;;;;;;;86.57;33.43;;;;;;;-2.35;91.79;98360.81;4187632;85;21144;-81
2020/12/10 05:55:45;;;;;;;91.23;31.30;;;;;;;-2.35;91.74;98355.45;4189424;84;21187;-82
2020/12/10 06:01:47;;;;;;;88.17;30.70;;;;;;;-2.33;91.82;98357.83;4188711;84;21175;-81
2020/12/10 06:07:58;;;;;;;82.80;32.20;;;;;;;-2.34;91.71;98350.35;4191955;84;21154;-81
2020/12/10 06:14:09;;;;;;;105.90;36.03;;;;;;;-2.29;91.73;98349.43;4461208;79;23152;-81
2020/12/10 06:20:19;;;;;;;101.73;38.27;;;;;;;-2.31;91.85;98350.28;4311562;82;21138;-81
2020/12/10 06:26:31;;;;;;;88.80;35.03;;;;;;;-2.29;91.76;98354.79;4298591;81;21182;-82
2020/12/10 06:32:48;;;;;;;81.97;32.53;;;;;;;-2.27;91.78;98348.02;4258988;83;21638;-81
2020/12/10 06:38:56;;;;;;;74.40;31.23;;;;;;;-2.25;91.74;98340.46;4240724;83;21191;-82
2020/12/10 06:44:57;;;;;;;83.57;29.93;;;;;;;-2.24;91.79;98331.31;4249780;83;21145;-81
2020/12/10 06:51:18;;;;;;;85.90;32.23;;;;;;;-2.24;91.88;98328.62;4240873;83;21169;-82
2020/12/10 06:57:20;;;;;;;74.57;29.43;;;;;;;-2.25;92.00;98329.73;4251745;83;21162;-82
2020/12/10 07:03:27;;;;;;;71.30;30.20;;;;;;;-2.20;91.86;98327.47;4229385;83;21169;-82
2020/12/10 07:09:33;;;;;;;67.60;24.63;;;;;;;-2.18;91.87;98317.23;4303635;81;21169;-82
2020/12/10 07:15:35;;;;;;;49.37;21.57;;;;;;;-2.12;91.83;98310.63;4297466;82;21262;-82
2020/12/10 07:21:37;;;;;;;45.50;19.97;;;;;;;-2.17;91.74;98308.08;4296944;82;21175;-82
2020/12/10 07:27:42;;;;;;;48.80;20.20;;;;;;;-2.14;91.78;98297.54;4307928;82;21629;-81
2020/12/10 07:33:45;;;;;;;50.03;20.70;;;;;;;-2.12;91.73;98285.96;4307638;81;21204;-82
2020/12/10 07:39:46;;;;;;;55.03;22.73;;;;;;;-2.06;91.71;98284.72;4257533;81;21133;-81
2020/12/10 07:45:50;;;;;;;43.63;20.00;;;;;;;-2.00;91.68;98284.81;4267093;81;21311;-82
2020/12/10 07:52:08;;;;;;;47.13;20.50;;;;;;;-1.95;91.57;98284.68;4303048;81;21179;-82
2020/12/10 07:58:24;;;;;;;43.87;21.30;;;;;;;-1.92;91.62;98274.67;4301390;82;21546;-81
2020/12/10 08:04:27;;;;;;;47.40;21.37;;;;;;;-1.89;91.56;98263.31;4300130;81;21644;-82
2020/12/10 08:10:31;;;;;;;46.30;20.50;;;;;;;-1.84;91.60;98265.86;4306660;81;21176;-82
2020/12/10 08:16:45;;;;;;;42.97;18.27;;;;;;;-1.81;91.43;98271.14;4317976;81;21465;-81
2020/12/10 08:22:47;;;;;;;47.70;19.73;;;;;;;-1.82;91.45;98267.66;4325205;81;21713;-81
2020/12/10 08:28:55;;;;;;;51.80;21.17;;;;;;;-1.83;91.44;98259.38;4323556;81;21141;-81
2020/12/10 08:35:06;;;;;;;47.80;20.77;;;;;;;-1.84;91.42;98265.06;4321200;81;21197;-81
2020/12/10 08:41:08;;;;;;;56.33;21.20;;;;;;;-1.83;91.41;98254.55;4319676;81;21848;-81
2020/12/10 08:47:09;;;;;;;46.57;20.57;;;;;;;-1.82;91.37;98254.24;4321783;81;21170;-82
2020/12/10 08:53:12;;;;;;;39.43;18.53;;;;;;;-1.78;91.35;98245.83;4319170;81;21622;-81
2020/12/10 08:59:18;;;;;;;45.60;19.73;;;;;;;-1.72;91.30;98230.35;4326518;81;21182;-81
2020/12/10 09:05:19;;;;;;;47.47;19.93;;;;;;;-1.65;91.29;98233.37;4337318;81;21122;-81
2020/12/10 09:11:21;;;;;;;53.40;22.73;;;;;;;-1.60;91.29;98231.89;4318987;81;21666;-81
2020/12/10 09:17:23;;;;;;;47.43;21.57;;;;;;;-1.50;91.31;98222.17;4311615;81;21590;-82
2020/12/10 09:23:44;;;;;;;49.03;20.73;;;;;;;-1.40;91.14;98213.82;4312894;81;21177;-81
2020/12/10 09:29:42;;;;;;;50.07;19.67;;;;;;;-1.26;91.07;98207.73;4330660;81;21621;-82
2020/12/10 09:35:43;;;;;;;42.93;18.80;;;;;;;-1.16;90.78;98215.45;4304580;81;21129;-81
2020/12/10 09:41:46;;;;;;;45.70;19.17;;;;;;;-1.12;90.73;98202.19;4320077;81;21957;-81
2020/12/10 09:47:47;;;;;;;41.73;18.40;;;;;;;-1.06;90.72;98187.48;4321959;81;21165;-82
2020/12/10 09:53:59;;;;;;;48.80;19.63;;;;;;;-1.04;90.43;98177.21;4316507;81;21161;-81
2020/12/10 09:59:52;;;;;;;40.23;18.27;;;;;;;-1.01;90.48;98177.38;4324270;81;21439;-82
2020/12/10 10:05:54;;;;;;;40.27;18.67;;;;;;;-0.98;90.46;98179.42;4322843;81;21885;-81
2020/12/10 10:11:56;;;;;;;41.83;18.83;;;;;;;-0.96;90.34;98168.35;4316994;81;21178;-83
2020/12/10 10:17:58;;;;;;;38.60;17.43;;;;;;;-0.98;90.13;98163.30;4330115;81;21665;-82
2020/12/10 10:24:07;;;;;;;44.60;21.87;;;;;;;-1.00;89.94;98154.77;4328990;81;21182;-82
2020/12/10 10:30:12;;;;;;;43.87;18.67;;;;;;;-1.00;90.11;98139.98;4337159;81;21288;-82
2020/12/10 10:36:14;;;;;;;45.07;19.40;;;;;;;-1.00;89.93;98137.88;4308841;81;21171;-82
2020/12/10 10:42:15;;;;;;;45.97;19.80;;;;;;;-1.00;89.98;98129.81;4335148;81;21589;-81
2020/12/10 10:48:17;;;;;;;44.03;20.73;;;;;;;-1.01;89.87;98129.02;4299945;81;21335;-82
2020/12/10 10:54:18;;;;;;;46.67;21.30;;;;;;;-1.02;90.03;98116.71;4326531;81;21193;-82
2020/12/10 11:00:20;;;;;;;44.20;18.13;;;;;;;-1.03;89.99;98106.25;4323450;81;21332;-82
2020/12/10 11:06:21;;;;;;;41.47;18.50;;;;;;;-1.08;89.93;98101.84;4309657;81;21158;-81
2020/12/10 11:12:26;;;;;;;40.13;19.27;;;;;;;-1.12;89.95;98096.89;4296302;81;21733;-82
2020/12/10 11:18:27;;;;;;;39.53;19.47;;;;;;;-1.06;89.96;98101.53;4302111;81;21169;-82
2020/12/10 11:24:28;;;;;;;46.70;22.27;;;;;;;-1.03;90.04;98099.54;4246520;83;21753;-81
2020/12/10 11:30:30;;;;;;;39.50;21.20;;;;;;;-1.05;89.87;98091.03;4223098;83;21210;-82
2020/12/10 11:36:31;;;;;;;45.37;21.37;;;;;;;-1.05;89.99;98094.48;4236922;83;21163;-82
2020/12/10 11:42:32;;;;;;;41.67;21.43;;;;;;;-1.03;90.04;98085.56;4293668;81;21183;-82
2020/12/10 11:48:34;;;;;;;43.93;19.53;;;;;;;-0.99;90.03;98085.72;4207609;81;31556;-82
2020/12/10 11:54:35;;;;;;;40.13;20.33;;;;;;;-0.91;90.08;98082.98;4137734;85;21320;-82
2020/12/10 12:00:38;;;;;;;49.87;22.17;;;;;;;-0.82;90.07;98076.25;4073800;85;21291;-82
2020/12/10 12:06:39;;;;;;;44.53;21.83;;;;;;;-0.78;90.02;98069.90;4065585;87;21220;-82
2020/12/10 12:12:41;;;;;;;45.37;19.60;;;;;;;-0.79;89.87;98073.70;4097218;85;21209;-82
2020/12/10 12:18:43;;;;;;;44.87;20.50;;;;;;;-0.82;89.95;98068.98;4059448;87;21160;-82
2020/12/10 12:24:45;;;;;;;46.97;22.27;;;;;;;-0.79;89.97;98062.95;4064707;86;21171;-82
2020/12/10 12:30:46;;;;;;;57.63;28.30;;;;;;;-0.76;89.92;98066.34;4095592;86;21584;-82
2020/12/10 12:36:48;;;;;;;48.40;21.37;;;;;;;-0.77;89.97;98061.29;4047861;86;21620;-82
2020/12/10 12:42:49;;;;;;;59.40;25.33;;;;;;;-0.72;90.03;98062.45;4065302;86;21201;-83
2020/12/10 12:48:53;;;;;;;52.87;24.13;;;;;;;-0.73;90.07;98064.89;4056964;87;21218;-82
2020/12/10 12:54:54;;;;;;;51.60;23.30;;;;;;;-0.68;90.05;98064.17;4050338;87;21364;-82
2020/12/10 13:00:57;;;;;;;47.10;22.93;;;;;;;-0.68;90.01;98064.72;4051241;87;21773;-82
2020/12/10 13:06:58;;;;;;;56.93;27.50;;;;;;;-0.70;89.94;98061.55;4054778;86;21185;-82
2020/12/10 13:13:00;;;;;;;49.57;23.03;;;;;;;-0.65;90.15;98054.11;4058538;86;21242;-81
2020/12/10 13:19:01;;;;;;;57.43;23.73;;;;;;;-0.64;90.09;98052.98;4056525;87;21202;-81
2020/12/10 13:25:03;;;;;;;52.60;24.90;;;;;;;-0.64;90.09;98044.92;4051602;86;21995;-81
2020/12/10 13:31:06;;;;;;;62.17;27.37;;;;;;;-0.57;90.16;98053.83;4046995;86;21162;-82
2020/12/10 13:37:08;;;;;;;44.70;20.87;;;;;;;-0.58;90.00;98057.06;4053057;87;21921;-82
2020/12/10 13:43:09;;;;;;;43.27;21.03;;;;;;;-0.59;90.10;98054.70;4056124;87;21185;-82
2020/12/10 13:49:11;;;;;;;48.67;21.33;;;;;;;-0.57;90.06;98049.80;4055357;87;21297;-82
2020/12/10 13:55:14;;;;;;;58.07;24.87;;;;;;;-0.57;90.18;98057.31;4063785;87;21179;-82
2020/12/10 14:01:15;;;;;;;50.90;24.33;;;;;;;-0.55;90.17;98058.33;4045797;87;21174;-82
2020/12/10 14:07:16;;;;;;;52.10;23.60;;;;;;;-0.49;90.25;98063.75;4045099;87;21202;-82
2020/12/10 14:13:18;;;;;;;55.00;25.63;;;;;;;-0.45;90.19;98057.39;4067825;86;21214;-82
2020/12/10 14:19:41;;;;;;;67.07;31.73;;;;;;;-0.46;90.12;98058.52;4017510;87;21479;-81
2020/12/10 14:25:43;;;;;;;61.90;28.60;;;;;;;-0.46;90.29;98057.17;4034384;87;21239;-83
2020/12/10 14:31:44;;;;;;;57.50;24.47;;;;;;;-0.41;90.27;98056.19;4015097;87;21241;-81
2020/12/10 14:44:29;;;;;;;47.57;23.87;;;;;;;-0.28;90.58;98062.66;4016851;87;21197;-82
2020/12/10 14:50:31;;;;;;;51.13;25.30;;;;;;;-0.26;90.10;98069.85;4031723;87;21256;-82
2020/12/10 14:56:32;;;;;;;48.33;25.03;;;;;;;-0.34;90.07;98064.52;4036258;87;21175;-82
2020/12/10 15:02:33;;;;;;;48.78;23.70;;;;;;;-0.25;90.51;98073.34;4024481;87;21181;-82
2020/12/10 15:08:35;;;;;;;48.43;21.93;;;;;;;-0.28;90.12;98081.48;4116049;85;21617;-82
2020/12/10 15:14:36;;;;;;;55.50;25.40;;;;;;;-0.30;90.30;98085.05;4171445;83;21701;-82
2020/12/10 15:20:38;;;;;;;50.37;21.90;;;;;;;-0.23;90.52;98090.72;4236855;83;21176;-81
2020/12/10 15:26:39;;;;;;;50.90;23.33;;;;;;;-0.15;90.46;98097.14;4220775;83;21198;-81
2020/12/10 15:32:40;;;;;;;49.67;22.90;;;;;;;-0.21;89.93;98093.88;4213038;83;21211;-81
2020/12/10 15:38:42;;;;;;;49.17;23.93;;;;;;;-0.18;90.39;98097.25;4234489;83;21599;-81
2020/12/10 15:44:43;;;;;;;60.33;25.83;;;;;;;-0.07;90.21;98103.03;4212495;83;21311;-81
2020/12/10 15:50:45;;;;;;;62.83;29.03;;;;;;;-0.02;90.30;98108.22;4239243;82;21193;-81
2020/12/10 16:30:28;;;;;;;97.83;40.97;;;;;;;-0.76;90.60;98126.80;4676236;74;22188;-81
2020/12/10 16:36:29;;;;;;;112.33;51.13;;;;;;;-0.88;90.18;98140.67;4621927;75;21526;-81
2020/12/10 16:42:30;;;;;;;98.53;44.40;;;;;;;-0.85;90.57;98155.61;4621593;77;21127;-80
2020/12/10 16:48:32;;;;;;;106.40;45.50;;;;;;;-0.75;90.66;98159.85;4592923;77;21143;-81
2020/12/10 16:54:34;;;;;;;99.00;44.20;;;;;;;-0.61;90.69;98161.20;4612202;77;21135;-81
2020/12/10 17:00:36;;;;;;;94.80;41.37;;;;;;;-0.49;90.72;98144.41;4621047;77;21280;-81
2020/12/10 17:06:40;;;;;;;99.20;42.80;;;;;;;-0.38;90.48;98127.59;4610297;75;21618;-80
2020/12/10 17:12:43;;;;;;;95.13;41.67;;;;;;;-0.35;90.36;98132.32;4620549;77;21680;-81
2020/12/10 17:18:45;;;;;;;97.03;42.27;;;;;;;-0.24;90.51;98131.38;4621441;75;21143;-81
2020/12/10 17:24:48;;;;;;;103.93;41.90;;;;;;;-0.26;90.48;98141.13;4611165;77;21170;-81
2020/12/10 17:30:50;;;;;;;88.93;40.33;;;;;;;-0.21;90.15;98143.63;4610005;77;21558;-81
2020/12/10 17:36:57;;;;;;;106.83;43.43;;;;;;;-0.30;90.13;98149.59;4622953;77;21101;-81
2020/12/10 17:42:59;;;;;;;99.87;41.07;;;;;;;-0.36;90.25;98147.44;4605152;77;21144;-82
2020/12/10 17:49:01;;;;;;;91.43;36.73;;;;;;;-0.31;90.48;98143.99;4617938;75;21148;-81
2020/12/10 17:55:03;;;;;;;89.33;38.23;;;;;;;-0.21;90.42;98138.80;4613532;75;21120;-82
2020/12/10 18:22:40;;;;;;;92.20;37.83;;;;;;;-0.12;89.97;98154.33;4225689;84;21134;-83
2020/12/10 18:28:41;;;;;;;93.97;38.73;;;;;;;-0.19;89.75;98147.34;4202366;83;21675;-83
2020/12/10 18:34:43;;;;;;;93.57;38.10;;;;;;;-0.17;90.10;98150.47;4155325;85;21184;-82
2020/12/10 18:40:45;;;;;;;92.07;39.13;;;;;;;-0.10;90.20;98156.94;4209697;83;21384;-82
2020/12/10 18:46:47;;;;;;;97.57;40.58;;;;;;;-0.11;89.82;98165.34;4222384;83;21218;-82
2020/12/10 18:52:48;;;;;;;111.90;45.97;;;;;;;-0.16;89.99;98175.70;4222931;82;21186;-82
2020/12/10 18:58:52;;;;;;;105.17;45.07;;;;;;;-0.19;90.09;98191.14;4221360;83;21206;-82
2020/12/10 19:04:54;;;;;;;97.87;40.20;;;;;;;-0.23;90.03;98198.30;4221056;83;21656;-82
2020/12/10 19:10:55;;;;;;;115.47;47.13;;;;;;;-0.20;89.99;98208.41;4204351;83;21186;-82
2020/12/10 19:16:59;;;;;;;130.20;52.00;;;;;;;-0.20;90.31;98213.79;4224142;83;21778;-82
2020/12/10 19:23:01;;;;;;;128.97;50.55;;;;;;;-0.14;90.24;98215.19;4201818;84;21162;-82
2020/12/10 19:29:02;;;;;;;115.83;46.83;;;;;;;-0.05;90.02;98226.69;4202739;83;21727;-82
2020/12/10 19:35:06;;;;;;;120.57;48.25;;;;;;;-0.04;90.10;98235.55;4218868;83;21717;-82
2020/12/10 19:41:08;;;;;;;128.03;47.20;;;;;;;-0.08;89.95;98239.44;4223806;83;21638;-82
2020/12/10 19:47:11;;;;;;;128.07;48.60;;;;;;;-0.04;90.23;98236.35;4204928;83;21138;-82
2020/12/10 19:53:13;;;;;;;125.20;48.40;;;;;;;0.03;90.06;98243.92;4225302;84;21761;-82
2020/12/10 19:59:14;;;;;;;123.80;45.73;;;;;;;0.01;89.98;98239.41;4206999;83;21166;-82
2020/12/10 20:05:16;;;;;;;124.47;47.93;;;;;;;0.03;89.92;98248.50;4223498;84;21632;-83
2020/12/10 20:11:31;;;;;;;117.97;46.80;;;;;;;0.06;90.01;98239.78;4225643;83;21183;-82
2020/12/10 20:17:32;;;;;;;146.53;54.67;;;;;;;-0.08;89.71;98238.09;4205568;81;21209;-82
2020/12/10 20:23:34;;;;;;;131.03;53.33;;;;;;;-0.06;89.92;98243.15;4254227;82;21614;-83
2020/12/10 20:30:04;;;;;;;136.72;52.08;;;;;;;0.04;89.91;98236.07;4264236;81;21502;-83
2020/12/10 20:36:06;;;;;;;134.03;51.60;;;;;;;0.03;90.00;98237.74;4245171;81;21790;-84
2020/12/10 20:42:14;;;;;;;136.47;51.13;;;;;;;0.09;90.18;98235.89;4272686;81;21257;-82
2020/12/10 20:48:15;;;;;;;135.83;49.40;;;;;;;0.04;89.82;98242.80;4271438;81;21905;-83
2020/12/10 20:54:18;;;;;;;138.60;53.00;;;;;;;-0.03;89.69;98234.43;4273093;81;21366;-83
2020/12/10 21:00:19;;;;;;;137.60;52.13;;;;;;;-0.09;89.85;98233.04;4253715;81;21194;-82
2020/12/10 21:06:22;;;;;;;136.00;51.88;;;;;;;-0.07;89.89;98244.27;4247020;80;21202;-82
2020/12/10 21:12:23;;;;;;;131.27;52.07;;;;;;;-0.06;89.81;98247.98;4241565;80;21213;-82
2020/12/10 21:18:24;;;;;;;122.98;47.48;;;;;;;-0.14;89.69;98248.80;4271697;81;21212;-82
2020/12/10 21:24:26;;;;;;;136.50;51.00;;;;;;;-0.21;89.70;98260.64;4277271;81;21640;-82
2020/12/10 21:30:28;;;;;;;119.60;46.27;;;;;;;-0.44;89.92;98259.84;4273118;81;21347;-83
2020/12/10 21:36:29;;;;;;;131.97;50.20;;;;;;;-0.42;90.25;98273.73;4243180;80;21956;-82
2020/12/10 21:42:31;;;;;;;129.63;50.77;;;;;;;-0.30;90.16;98276.57;4273686;82;21193;-82
2020/12/10 21:48:33;;;;;;;121.63;49.57;;;;;;;-0.26;90.19;98283.67;4273612;81;21201;-83
2020/12/10 21:54:35;;;;;;;183.83;77.10;;;;;;;-0.19;90.26;98294.71;4275819;82;21193;-82
2020/12/10 22:00:36;;;;;;;189.03;82.23;;;;;;;-0.16;90.10;98290.03;4274120;81;21625;-81
2020/12/10 22:06:38;;;;;;;198.40;90.17;;;;;;;-0.24;89.97;98292.77;4271098;81;21684;-82
2020/12/10 22:12:49;;;;;;;213.82;89.20;;;;;;;-0.27;90.37;98279.38;4277633;81;21209;-83
2020/12/10 22:18:48;;;;;;;192.07;86.10;;;;;;;-0.21;89.96;98278.67;4274630;81;21626;-82
2020/12/10 22:24:52;;;;;;;239.40;100.80;;;;;;;-0.16;90.06;98277.92;4280263;81;21685;-82
2020/12/10 22:30:54;;;;;;;237.78;98.85;;;;;;;-0.17;89.86;98285.77;4274891;81;21848;-82
2020/12/10 22:36:55;;;;;;;244.45;100.80;;;;;;;-0.18;89.92;98295.51;4260943;81;21881;-82
2020/12/10 22:42:58;;;;;;;230.23;93.00;;;;;;;-0.11;90.08;98297.16;4269915;81;21165;-82
2020/12/10 22:49:00;;;;;;;236.40;98.55;;;;;;;-0.16;89.64;98286.57;4276812;81;21864;-82
2020/12/10 22:55:01;;;;;;;210.90;91.75;;;;;;;-0.17;89.96;98298.42;4277136;81;21352;-82
2020/12/10 23:01:31;;;;;;;201.15;90.55;;;;;;;-0.22;89.76;98292.66;4275034;82;21634;-83
2020/12/10 23:07:33;;;;;;;203.23;84.37;;;;;;;-0.20;90.13;98297.72;4280351;81;21642;-82
2020/12/10 23:13:34;;;;;;;195.43;86.23;;;;;;;-0.37;89.53;98294.54;4260711;81;21641;-82
2020/12/10 23:19:36;;;;;;;190.33;83.93;;;;;;;-0.49;89.55;98298.45;4262144;81;21217;-82
2020/12/10 23:25:37;;;;;;;177.23;80.60;;;;;;;-0.59;89.61;98297.98;4246657;81;21591;-82
2020/12/10 23:31:40;;;;;;;193.13;85.03;;;;;;;-0.61;89.83;98314.42;4152107;83;21729;-82
2020/12/10 23:37:48;;;;;;;169.50;76.40;;;;;;;-0.62;89.88;98312.86;4253150;81;21202;-81
2020/12/10 23:43:49;;;;;;;177.80;78.77;;;;;;;-0.63;89.92;98313.97;4305139;80;21887;-82
2020/12/10 23:49:51;;;;;;;176.57;78.40;;;;;;;-0.73;89.99;98316.98;4235122;82;21613;-82
2020/12/10 23:55:53;;;;;;;180.50;78.50;;;;;;;-0.75;89.76;98313.03;4299563;80;21249;-82
